createdAt,value
2018-07-06T00:02:27.708Z,100421.38
2018-07-06T00:05:07.409Z,100422.31
2018-07-06T00:07:46.894Z,100420.77
2018-07-06T00:10:26.552Z,100414.24
2018-07-06T00:13:06.272Z,100424.13
2018-07-06T00:15:45.894Z,100418.73
2018-07-06T00:18:25.506Z,100423.76
2018-07-06T00:21:05.174Z,100422.32
2018-07-06T00:23:44.691Z,100428.12
2018-07-06T00:26:24.375Z,100421.27
2018-07-06T00:29:04.001Z,100427.10
2018-07-06T00:31:43.542Z,100417.83
2018-07-06T00:34:23.196Z,100424.11
2018-07-06T00:37:02.746Z,100423.86
2018-07-06T00:39:42.476Z,100425.16
2018-07-06T00:42:22.167Z,100431.05
2018-07-06T00:45:01.721Z,100434.70
2018-07-06T00:47:41.610Z,100437.42
2018-07-06T00:50:21.395Z,100440.14
2018-07-06T00:53:00.967Z,100447.11
2018-07-06T00:55:40.634Z,100440.00
2018-07-06T00:58:23.276Z,100443.04
2018-07-06T01:01:03.325Z,100449.04
2018-07-06T01:03:42.940Z,100439.55
2018-07-06T01:06:22.554Z,100444.14
2018-07-06T01:09:02.051Z,100442.60
2018-07-06T01:11:41.679Z,100438.05
2018-07-06T01:14:21.199Z,100445.05
2018-07-06T01:17:00.852Z,100448.23
2018-07-06T01:19:40.537Z,100452.41
2018-07-06T01:22:20.175Z,100456.28
2018-07-06T01:24:59.786Z,100446.73
2018-07-06T01:27:39.411Z,100449.70
2018-07-06T01:30:19.082Z,100449.70
2018-07-06T01:32:58.699Z,100444.42
2018-07-06T01:35:38.278Z,100449.32
2018-07-06T01:38:17.847Z,100455.52
2018-07-06T01:40:57.474Z,100455.78
2018-07-06T01:43:37.149Z,100456.10
2018-07-06T01:46:16.610Z,100457.50
2018-07-06T01:48:56.210Z,100457.94
2018-07-06T01:51:35.872Z,100460.22
2018-07-06T01:54:15.502Z,100456.86
2018-07-06T01:56:55.097Z,100459.50
2018-07-06T01:59:34.806Z,100457.85
2018-07-06T02:02:14.542Z,100461.59
2018-07-06T02:04:54.118Z,100459.32
2018-07-06T02:07:33.778Z,100455.59
2018-07-06T02:10:13.338Z,100451.39
2018-07-06T02:12:52.962Z,100444.98
2018-07-06T02:15:32.470Z,100450.37
2018-07-06T02:18:12.107Z,100457.20
2018-07-06T02:20:51.663Z,100453.98
2018-07-06T02:23:31.500Z,100458.63
2018-07-06T02:26:11.115Z,100455.53
2018-07-06T02:28:50.754Z,100456.67
2018-07-06T02:31:30.436Z,100456.94
2018-07-06T02:34:10.252Z,100457.66
2018-07-06T02:36:50.092Z,100466.45
2018-07-06T02:39:29.802Z,100462.95
2018-07-06T02:42:09.532Z,100463.92
2018-07-06T02:44:49.493Z,100467.85
2018-07-06T02:47:29.220Z,100467.28
2018-07-06T02:50:08.990Z,100472.76
2018-07-06T02:52:48.525Z,100479.16
2018-07-06T02:55:28.262Z,100473.08
2018-07-06T02:58:07.875Z,100473.48
2018-07-06T03:00:47.601Z,100477.22
2018-07-06T03:03:27.343Z,100476.84
2018-07-06T03:06:07.089Z,100478.91
2018-07-06T03:08:46.853Z,100477.73
2018-07-06T03:11:26.384Z,100476.13
2018-07-06T03:14:06.087Z,100476.33
2018-07-06T03:16:45.784Z,100477.88
2018-07-06T03:19:25.400Z,100477.23
2018-07-06T03:22:05.325Z,100475.41
2018-07-06T03:24:44.896Z,100469.62
2018-07-06T03:27:24.580Z,100475.41
2018-07-06T03:30:04.192Z,100475.94
2018-07-06T03:32:43.783Z,100476.08
2018-07-06T03:35:23.501Z,100475.30
2018-07-06T03:38:03.114Z,100469.98
2018-07-06T03:40:42.555Z,100474.95
2018-07-06T03:43:22.245Z,100480.99
2018-07-06T03:46:01.907Z,100478.32
2018-07-06T03:48:41.592Z,100487.09
2018-07-06T03:51:21.227Z,100485.66
2018-07-06T03:54:00.726Z,100486.08
2018-07-06T03:56:40.337Z,100494.33
2018-07-06T03:59:19.799Z,100493.31
2018-07-06T04:01:59.463Z,100500.48
2018-07-06T04:04:39.116Z,100494.80
2018-07-06T04:07:18.704Z,100506.58
2018-07-06T04:09:58.321Z,100503.74
2018-07-06T04:12:37.988Z,100501.16
2018-07-06T04:15:17.536Z,100507.05
2018-07-06T04:17:57.199Z,100504.03
2018-07-06T04:20:36.793Z,100505.92
2018-07-06T04:23:16.451Z,100514.61
2018-07-06T04:25:55.951Z,100504.17
2018-07-06T04:28:35.600Z,100504.78
2018-07-06T04:31:15.157Z,100512.89
2018-07-06T04:33:55.201Z,100510.04
2018-07-06T04:36:34.842Z,100512.54
2018-07-06T04:39:14.612Z,100503.74
2018-07-06T04:41:54.599Z,100498.36
2018-07-06T04:44:34.640Z,100505.70
2018-07-06T04:47:14.273Z,100510.98
2018-07-06T04:49:53.899Z,100509.84
2018-07-06T04:52:33.609Z,100513.41
2018-07-06T04:55:13.266Z,100504.37
2018-07-06T04:57:52.863Z,100507.63
2018-07-06T05:00:32.689Z,100508.65
2018-07-06T05:03:12.388Z,100507.51
2018-07-06T05:05:52.138Z,100514.23
2018-07-06T05:08:32.017Z,100520.28
2018-07-06T05:11:11.720Z,100518.11
2018-07-06T05:13:51.370Z,100514.09
2018-07-06T05:16:31.000Z,100523.23
2018-07-06T05:19:10.681Z,100519.35
2018-07-06T05:21:50.151Z,100512.44
2018-07-06T05:24:29.786Z,100527.02
2018-07-06T05:27:09.281Z,100525.02
2018-07-06T05:29:49.028Z,100528.58
2018-07-06T05:32:28.511Z,100537.00
2018-07-06T05:35:08.096Z,100534.52
2018-07-06T05:37:48.015Z,100534.06
2018-07-06T05:40:27.614Z,100533.50
2018-07-06T05:43:07.289Z,100546.11
2018-07-06T05:45:46.878Z,100547.13
2018-07-06T05:48:26.484Z,100544.85
2018-07-06T05:51:06.040Z,100549.92
2018-07-06T05:53:45.712Z,100558.63
2018-07-06T05:56:25.448Z,100560.64
2018-07-06T05:59:04.950Z,100562.61
2018-07-06T06:01:44.576Z,100561.83
2018-07-06T06:04:24.179Z,100565.30
2018-07-06T06:07:03.751Z,100566.28
2018-07-06T06:09:32.133Z,100564.59
2018-07-06T06:12:00.552Z,100572.59
2018-07-06T06:14:29.022Z,100578.69
2018-07-06T06:16:57.403Z,100580.44
2018-07-06T06:19:26.263Z,100580.42
2018-07-06T06:21:54.818Z,100583.73
2018-07-06T06:24:23.195Z,100591.81
2018-07-06T06:26:51.629Z,100586.44
2018-07-06T06:29:19.994Z,100592.73
2018-07-06T06:31:48.492Z,100590.27
2018-07-06T06:34:17.002Z,100590.46
2018-07-06T06:36:45.469Z,100590.78
2018-07-06T06:39:13.881Z,100592.73
2018-07-06T06:41:42.379Z,100599.20
2018-07-06T06:44:10.951Z,100600.86
2018-07-06T06:46:39.490Z,100602.17
2018-07-06T06:49:07.965Z,100608.00
2018-07-06T06:51:36.470Z,100607.59
2018-07-06T06:54:04.896Z,100609.66
2018-07-06T06:56:33.352Z,100603.86
2018-07-06T06:59:01.932Z,100601.65
2018-07-06T07:01:30.749Z,100609.66
2018-07-06T07:03:59.826Z,100613.53
2018-07-06T07:06:28.269Z,100618.79
2018-07-06T07:08:56.714Z,100613.36
2018-07-06T07:11:25.199Z,100612.41
2018-07-06T07:13:53.967Z,100613.92
2018-07-06T07:16:22.577Z,100618.27
2018-07-06T07:18:50.973Z,100617.87
2018-07-06T07:21:19.448Z,100624.42
2018-07-06T07:23:47.941Z,100620.91
2018-07-06T07:26:16.708Z,100631.35
2018-07-06T07:28:45.510Z,100623.50
2018-07-06T07:31:13.946Z,100631.41
2018-07-06T07:33:42.374Z,100629.08
2018-07-06T07:36:10.788Z,100630.94
2018-07-06T07:38:39.235Z,100624.67
2018-07-06T07:41:07.987Z,100633.02
2018-07-06T07:43:36.372Z,100630.37
2018-07-06T07:46:05.412Z,100635.23
2018-07-06T07:48:33.830Z,100634.89
2018-07-06T07:51:13.659Z,100638.92
2018-07-06T07:53:53.184Z,100637.16
2018-07-06T07:56:21.848Z,100639.03
2018-07-06T07:58:50.674Z,100641.61
2018-07-06T08:01:19.316Z,100641.88
2018-07-06T08:03:47.714Z,100643.68
2018-07-06T08:06:16.219Z,100647.44
2018-07-06T08:08:44.656Z,100647.83
2018-07-06T08:11:13.141Z,100648.23
2018-07-06T08:13:41.644Z,100652.23
2018-07-06T08:16:10.066Z,100652.49
2018-07-06T08:18:39.352Z,100652.61
2018-07-06T08:21:07.777Z,100650.69
2018-07-06T08:23:36.191Z,100653.80
2018-07-06T08:26:04.624Z,100655.09
2018-07-06T08:28:33.044Z,100660.95
2018-07-06T08:31:01.695Z,100662.97
2018-07-06T08:33:33.512Z,100667.25
2018-07-06T08:36:14.512Z,100675.78
2018-07-06T08:38:42.982Z,100679.66
2018-07-06T08:41:11.496Z,100684.83
2018-07-06T08:43:40.240Z,100688.89
2018-07-06T08:46:09.193Z,100682.85
2018-07-06T08:48:37.925Z,100683.58
2018-07-06T08:51:07.044Z,100685.73
2018-07-06T08:53:35.511Z,100689.09
2018-07-06T08:56:03.976Z,100694.13
2018-07-06T08:58:32.722Z,100690.41
2018-07-06T09:01:01.244Z,100691.44
2018-07-06T09:03:29.651Z,100696.61
2018-07-06T09:05:58.332Z,100697.23
2018-07-06T09:08:26.913Z,100700.20
2018-07-06T09:10:55.364Z,100705.53
2018-07-06T09:13:24.150Z,100704.08
2018-07-06T09:15:52.779Z,100704.48
2018-07-06T09:18:21.247Z,100703.00
2018-07-06T09:20:49.686Z,100709.93
2018-07-06T09:23:18.471Z,100708.13
2018-07-06T09:25:47.043Z,100706.12
2018-07-06T09:28:15.502Z,100705.74
2018-07-06T09:30:43.908Z,100706.57
2018-07-06T09:33:12.350Z,100706.84
2018-07-06T09:35:40.816Z,100701.92
2018-07-06T09:38:09.411Z,100705.67
2018-07-06T09:40:38.133Z,100703.55
2018-07-06T09:43:06.659Z,100704.02
2018-07-06T09:45:35.209Z,100703.87
2018-07-06T09:48:03.735Z,100710.33
2018-07-06T09:50:32.158Z,100704.84
2018-07-06T09:53:00.579Z,100710.73
2018-07-06T09:55:29.245Z,100707.23
2018-07-06T09:57:57.940Z,100710.41
2018-07-06T10:00:31.628Z,100709.60
2018-07-06T10:03:00.078Z,100712.62
2018-07-06T10:05:28.517Z,100716.75
2018-07-06T10:07:57.039Z,100713.06
2018-07-06T10:10:25.502Z,100718.25
2018-07-06T10:12:53.937Z,100718.09
2018-07-06T10:15:22.467Z,100714.31
2018-07-06T10:17:50.891Z,100717.16
2018-07-06T10:20:19.429Z,100712.98
2018-07-06T10:22:47.884Z,100717.79
2018-07-06T10:25:16.302Z,100711.98
2018-07-06T10:27:51.818Z,100714.91
2018-07-06T10:30:27.038Z,100715.10
2018-07-06T10:32:55.627Z,100709.75
2018-07-06T10:35:24.059Z,100712.76
2018-07-06T10:37:52.858Z,100713.61
2018-07-06T10:40:21.292Z,100712.64
2018-07-06T10:42:49.735Z,100715.00
2018-07-06T10:45:18.188Z,100706.35
2018-07-06T10:47:46.632Z,100712.40
2018-07-06T10:50:15.106Z,100707.95
2018-07-06T10:52:43.737Z,100700.80
2018-07-06T10:55:12.132Z,100700.84
2018-07-06T10:57:41.126Z,100701.65
2018-07-06T11:00:09.544Z,100684.23
2018-07-06T11:02:38.222Z,100703.91
2018-07-06T11:05:06.779Z,100702.30
2018-07-06T11:07:35.187Z,100708.00
2018-07-06T11:10:03.632Z,100710.89
2018-07-06T11:12:32.009Z,100708.76
2018-07-06T11:15:00.659Z,100704.36
2018-07-06T11:17:29.096Z,100713.64
2018-07-06T11:19:57.917Z,100719.81
2018-07-06T11:22:26.462Z,100708.45
2018-07-06T11:24:55.146Z,100713.48
2018-07-06T11:27:23.627Z,100714.34
2018-07-06T11:29:52.106Z,100707.16
2018-07-06T11:32:20.580Z,100708.41
2018-07-06T11:34:49.087Z,100698.97
2018-07-06T11:37:17.642Z,100693.47
2018-07-06T11:39:46.158Z,100701.46
2018-07-06T11:42:14.821Z,100697.94
2018-07-06T11:44:43.411Z,100709.31
2018-07-06T11:47:11.829Z,100707.64
2018-07-06T11:49:40.229Z,100710.11
2018-07-06T11:52:08.716Z,100717.01
2018-07-06T11:54:37.259Z,100718.41
2018-07-06T11:57:05.699Z,100721.28
2018-07-06T11:59:34.148Z,100724.94
2018-07-06T12:02:02.866Z,100722.19
2018-07-06T12:04:31.315Z,100728.57
2018-07-06T12:06:59.848Z,100731.28
2018-07-06T12:09:28.221Z,100726.10
2018-07-06T12:11:56.812Z,100726.84
2018-07-06T12:14:25.517Z,100729.25
2018-07-06T12:16:54.037Z,100726.33
2018-07-06T12:19:22.574Z,100722.52
2018-07-06T12:21:51.244Z,100716.74
2018-07-06T12:24:19.714Z,100726.53
2018-07-06T12:26:48.159Z,100729.78
2018-07-06T12:29:16.757Z,100731.41
2018-07-06T12:31:46.144Z,100727.02
2018-07-06T12:34:14.714Z,100740.58
2018-07-06T12:36:44.568Z,100738.19
2018-07-06T12:39:13.416Z,100737.89
2018-07-06T12:41:41.897Z,100742.70
2018-07-06T12:44:10.850Z,100742.06
2018-07-06T12:46:40.032Z,100743.78
2018-07-06T12:49:08.629Z,100744.29
2018-07-06T12:51:37.367Z,100744.89
2018-07-06T12:54:05.808Z,100747.77
2018-07-06T12:56:34.426Z,100746.88
2018-07-06T12:59:03.033Z,100742.95
2018-07-06T13:01:31.731Z,100747.56
2018-07-06T13:04:00.420Z,100748.59
2018-07-06T13:06:29.028Z,100738.80
2018-07-06T13:08:57.486Z,100752.30
2018-07-06T13:11:26.108Z,100758.66
2018-07-06T13:13:55.365Z,100752.07
2018-07-06T13:16:24.954Z,100753.02
2018-07-06T13:18:53.693Z,100755.83
2018-07-06T13:21:22.207Z,100752.86
2018-07-06T13:23:50.918Z,100745.76
2018-07-06T13:26:19.402Z,100749.14
2018-07-06T13:28:47.938Z,100748.50
2018-07-06T13:31:16.559Z,100755.83
2018-07-06T13:33:45.110Z,100754.33
2018-07-06T13:36:13.695Z,100751.20
2018-07-06T13:38:42.600Z,100752.78
2018-07-06T13:41:11.135Z,100754.09
2018-07-06T13:43:39.540Z,100756.38
2018-07-06T13:46:08.889Z,100749.23
2018-07-06T13:48:37.352Z,100747.45
2018-07-06T13:51:05.970Z,100743.81
2018-07-06T13:53:35.046Z,100757.89
2018-07-06T13:56:03.510Z,100746.53
2018-07-06T13:58:32.161Z,100743.81
2018-07-06T14:01:00.585Z,100740.55
2018-07-06T14:03:29.288Z,100739.44
2018-07-06T14:05:58.071Z,100735.92
2018-07-06T14:08:26.592Z,100737.78
2018-07-06T14:10:55.049Z,100742.08
2018-07-06T14:13:24.024Z,100733.86
2018-07-06T14:15:52.705Z,100737.79
2018-07-06T14:18:21.182Z,100738.45
2018-07-06T14:20:49.628Z,100730.09
2018-07-06T14:23:18.059Z,100737.44
2018-07-06T14:25:46.605Z,100734.81
2018-07-06T14:28:15.029Z,100737.23
2018-07-06T14:30:43.547Z,100734.45
2018-07-06T14:33:11.953Z,100733.72
2018-07-06T14:35:40.435Z,100731.96
2018-07-06T14:38:09.380Z,100727.75
2018-07-06T14:40:37.831Z,100725.14
2018-07-06T14:43:06.398Z,100732.80
2018-07-06T14:45:35.080Z,100727.02
2018-07-06T14:48:03.553Z,100733.66
2018-07-06T14:50:32.069Z,100732.74
2018-07-06T14:53:00.835Z,100731.02
2018-07-06T14:55:29.307Z,100719.88
2018-07-06T14:57:57.999Z,100732.06
2018-07-06T15:00:26.503Z,100722.30
2018-07-06T15:02:55.172Z,100718.50
2018-07-06T15:05:23.637Z,100724.62
2018-07-06T15:07:52.119Z,100732.69
2018-07-06T15:10:20.732Z,100722.77
2018-07-06T15:12:49.254Z,100734.16
2018-07-06T15:15:17.889Z,100727.77
2018-07-06T15:17:46.556Z,100728.55
2018-07-06T15:20:15.186Z,100727.16
2018-07-06T15:22:43.679Z,100727.64
2018-07-06T15:25:12.251Z,100737.81
2018-07-06T15:27:40.707Z,100723.33
2018-07-06T15:30:09.319Z,100723.25
2018-07-06T15:32:37.964Z,100724.55
2018-07-06T15:35:06.410Z,100730.33
2018-07-06T15:37:34.995Z,100729.69
2018-07-06T15:40:03.587Z,100725.37
2018-07-06T15:42:32.020Z,100726.11
2018-07-06T15:45:00.471Z,100728.64
2018-07-06T15:47:29.237Z,100732.98
2018-07-06T15:49:57.700Z,100734.86
2018-07-06T15:52:26.403Z,100729.07
2018-07-06T15:54:54.898Z,100731.34
2018-07-06T15:57:23.376Z,100730.42
2018-07-06T15:59:52.106Z,100720.55
2018-07-06T16:02:20.883Z,100719.06
2018-07-06T16:04:49.384Z,100721.85
2018-07-06T16:07:18.028Z,100724.06
2018-07-06T16:09:47.196Z,100722.94
2018-07-06T16:12:15.735Z,100724.67
2018-07-06T16:14:44.513Z,100716.66
2018-07-06T16:17:13.047Z,100724.41
2018-07-06T16:19:41.507Z,100723.11
2018-07-06T16:22:10.099Z,100726.54
2018-07-06T16:24:38.635Z,100731.81
2018-07-06T16:27:07.159Z,100726.45
2018-07-06T16:29:35.760Z,100730.98
2018-07-06T16:32:04.335Z,100725.98
2018-07-06T16:34:33.014Z,100720.48
2018-07-06T16:37:01.763Z,100731.50
2018-07-06T16:39:30.217Z,100724.02
2018-07-06T16:41:58.927Z,100735.02
2018-07-06T16:44:27.433Z,100730.20
2018-07-06T16:46:55.929Z,100728.72
2018-07-06T16:49:24.467Z,100731.77
2018-07-06T16:51:55.269Z,100727.45
2018-07-06T16:54:26.052Z,100732.20
2018-07-06T16:56:54.589Z,100733.23
2018-07-06T16:59:23.063Z,100731.45
2018-07-06T17:01:51.679Z,100737.16
2018-07-06T17:04:20.243Z,100733.55
2018-07-06T17:06:48.785Z,100724.41
2018-07-06T17:09:17.426Z,100729.24
2018-07-06T17:11:45.881Z,100732.06
2018-07-06T17:14:15.387Z,100726.84
2018-07-06T17:16:44.103Z,100732.08
2018-07-06T17:19:12.635Z,100732.55
2018-07-06T17:21:41.339Z,100735.99
2018-07-06T17:24:10.012Z,100740.12
2018-07-06T17:26:38.638Z,100741.13
2018-07-06T17:29:07.193Z,100736.21
2018-07-06T17:31:36.186Z,100743.30
2018-07-06T17:34:05.002Z,100746.51
2018-07-06T17:36:33.911Z,100742.20
2018-07-06T17:39:02.483Z,100752.67
2018-07-06T17:41:31.054Z,100745.97
2018-07-06T17:43:59.457Z,100751.20
2018-07-06T17:46:27.883Z,100750.82
2018-07-06T17:48:56.411Z,100752.33
2018-07-06T17:51:25.147Z,100747.88
2018-07-06T17:53:55.207Z,100752.70
2018-07-06T17:56:23.966Z,100748.98
2018-07-06T17:58:52.460Z,100755.89
2018-07-06T18:01:21.039Z,100760.92
2018-07-06T18:03:49.827Z,100759.98
2018-07-06T18:06:18.650Z,100764.93
2018-07-06T18:08:47.498Z,100756.17
2018-07-06T18:11:16.086Z,100768.80
2018-07-06T18:13:44.674Z,100768.61
2018-07-06T18:16:13.313Z,100772.52
2018-07-06T18:18:41.708Z,100769.72
2018-07-06T18:21:10.557Z,100771.85
2018-07-06T18:23:39.067Z,100779.13
2018-07-06T18:26:07.497Z,100779.84
2018-07-06T18:28:36.248Z,100777.31
2018-07-06T18:31:04.867Z,100780.58
2018-07-06T18:33:33.350Z,100774.77
2018-07-06T18:36:01.887Z,100782.94
2018-07-06T18:38:30.485Z,100777.60
2018-07-06T18:40:58.977Z,100788.20
2018-07-06T18:43:27.492Z,100779.83
2018-07-06T18:45:56.154Z,100784.33
2018-07-06T18:48:24.971Z,100787.47
2018-07-06T18:50:54.065Z,100789.75
2018-07-06T18:53:23.172Z,100798.02
2018-07-06T18:55:52.047Z,100793.30
2018-07-06T18:58:20.535Z,100799.63
2018-07-06T19:00:49.033Z,100801.95
2018-07-06T19:03:17.628Z,100800.69
2018-07-06T19:05:46.126Z,100795.16
2018-07-06T19:08:14.575Z,100808.75
2018-07-06T19:10:43.444Z,100807.34
2018-07-06T19:13:11.989Z,100816.58
2018-07-06T19:15:40.481Z,100811.73
2018-07-06T19:18:09.121Z,100813.50
2018-07-06T19:20:37.787Z,100816.56
2018-07-06T19:23:06.266Z,100816.50
2018-07-06T19:25:34.937Z,100819.34
2018-07-06T19:28:03.440Z,100817.84
2018-07-06T19:30:32.248Z,100830.06
2018-07-06T19:33:00.706Z,100827.94
2018-07-06T19:35:29.096Z,100837.70
2018-07-06T19:37:57.632Z,100836.34
2018-07-06T19:40:26.260Z,100838.70
2018-07-06T19:42:54.758Z,100843.83
2018-07-06T19:45:23.828Z,100845.55
2018-07-06T19:47:52.578Z,100852.24
2018-07-06T19:50:21.316Z,100855.47
2018-07-06T19:52:49.998Z,100855.22
2018-07-06T19:55:18.957Z,100866.90
2018-07-06T19:57:47.450Z,100864.83
2018-07-06T20:00:16.056Z,100869.84
2018-07-06T20:02:44.523Z,100877.88
2018-07-06T20:05:13.114Z,100880.17
2018-07-06T20:07:41.633Z,100885.91
2018-07-06T20:10:10.383Z,100889.77
2018-07-06T20:12:38.874Z,100894.24
2018-07-06T20:15:07.466Z,100893.94
2018-07-06T20:17:35.881Z,100902.91
2018-07-06T20:20:04.590Z,100901.05
2018-07-06T20:22:33.175Z,100905.05
2018-07-06T20:25:02.153Z,100913.09
2018-07-06T20:27:30.814Z,100912.23
2018-07-06T20:29:59.285Z,100908.95
2018-07-06T20:32:27.796Z,100909.46
2018-07-06T20:34:56.358Z,100910.64
2018-07-06T20:37:24.962Z,100907.58
2018-07-06T20:39:53.422Z,100911.09
2018-07-06T20:42:21.917Z,100908.08
2018-07-06T20:44:50.982Z,100916.72
2018-07-06T20:47:19.502Z,100920.44
2018-07-06T20:49:48.646Z,100918.61
2018-07-06T20:52:17.160Z,100921.68
2018-07-06T20:54:45.657Z,100924.47
2018-07-06T20:57:14.240Z,100918.52
2018-07-06T20:59:42.809Z,100918.72
2018-07-06T21:02:11.437Z,100927.57
2018-07-06T21:04:40.103Z,100928.94
2018-07-06T21:07:08.632Z,100930.67
2018-07-06T21:09:37.158Z,100936.72
2018-07-06T21:12:05.788Z,100938.11
2018-07-06T21:14:35.685Z,100941.97
2018-07-06T21:17:08.630Z,100937.45
2018-07-06T21:19:37.225Z,100946.45
2018-07-06T21:22:06.021Z,100948.05
2018-07-06T21:24:35.263Z,100950.41
2018-07-06T21:27:04.732Z,100951.54
2018-07-06T21:29:34.572Z,100958.39
2018-07-06T21:32:04.748Z,100961.58
2018-07-06T21:34:34.016Z,100966.08
2018-07-06T21:37:04.122Z,100964.45
2018-07-06T21:39:33.023Z,100967.58
2018-07-06T21:42:01.954Z,100967.50
2018-07-06T21:44:30.776Z,100965.08
2018-07-06T21:46:59.784Z,100975.05
2018-07-06T21:49:28.727Z,100972.33
2018-07-06T21:51:57.619Z,100970.14
2018-07-06T21:54:26.816Z,100975.48
2018-07-06T21:56:56.492Z,100979.55
2018-07-06T21:59:25.748Z,100973.81
2018-07-06T22:01:54.828Z,100971.00
2018-07-06T22:04:24.340Z,100973.33
2018-07-06T22:06:55.211Z,100974.38
2018-07-06T22:09:24.569Z,100975.03
2018-07-06T22:24:59.190Z,100993.25
2018-07-06T22:30:26.766Z,100987.63
2018-07-06T22:32:56.170Z,100998.75
2018-07-06T22:35:27.669Z,101001.20
2018-07-06T22:37:56.256Z,101005.20
2018-07-06T22:40:24.719Z,101007.84
2018-07-06T22:42:53.399Z,101003.16
2018-07-06T22:45:22.689Z,101003.38
2018-07-06T22:47:51.267Z,101002.45
2018-07-06T22:50:19.803Z,101005.41
2018-07-06T22:52:48.414Z,101005.50
2018-07-06T22:55:16.971Z,100998.98
2018-07-06T22:57:45.616Z,101009.99
2018-07-06T23:00:14.202Z,101008.11
2018-07-06T23:02:42.778Z,101012.45
2018-07-06T23:05:17.378Z,101007.05
2018-07-06T23:07:45.909Z,101000.80
2018-07-06T23:10:14.567Z,101010.35
2018-07-06T23:12:42.991Z,101006.91
2018-07-06T23:15:11.522Z,101006.59
2018-07-06T23:17:40.135Z,101004.94
2018-07-06T23:20:08.645Z,101007.18
2018-07-06T23:22:49.102Z,101008.21
2018-07-06T23:25:17.632Z,101005.67
2018-07-06T23:27:46.105Z,101003.81
2018-07-06T23:30:14.536Z,101000.56
2018-07-06T23:32:44.317Z,101002.47
2018-07-06T23:35:12.827Z,101002.21
2018-07-06T23:37:41.306Z,100996.62
2018-07-06T23:40:09.777Z,100997.31
2018-07-06T23:42:38.602Z,100993.20
2018-07-06T23:45:07.479Z,100998.02
2018-07-06T23:47:35.978Z,100994.41
2018-07-06T23:50:04.475Z,100999.52
2018-07-06T23:52:32.896Z,101001.00
2018-07-06T23:55:01.606Z,100995.91
2018-07-06T23:57:30.090Z,101004.13
2018-07-06T23:59:58.624Z,101000.45
